PORT of AGATHONISSI

Land: Greece Land: Greece (GR)
Bredde og lengdegrad: 37.452475° / 26.966° Vis i kart Vis i kart
Lokal tid:  UTC +3
UN/LOCODE: GRAGN

Siste ankomster og avganger


Fartøyets navn
Ankomst (UTC)
Ankomst (LT)
Avgang (UTC)
Avgang (LT)
Vessel Type: Passasjer båt  NISOS KALYMNOS 2014-08-29 13:36:00 2014-08-29 16:36:00 2014-08-29 15:33:00 2014-08-29 18:33:00
Vessel Type: Yachts & andre  CLIA 2014-08-28 08:08:00 2014-08-28 11:08:00 2014-08-28 18:06:00 2014-08-28 21:06:00
Vessel Type: Yachts & andre  CLOUD ATLAS 2014-08-23 14:16:00 2014-08-23 17:16:00 2014-08-27 07:08:00 2014-08-27 10:08:00
Vessel Type: Passasjer båt  NISOS KALYMNOS 2014-08-26 13:38:00 2014-08-26 16:38:00 2014-08-26 14:10:00 2014-08-26 17:10:00
Vessel Type: Tankskip  MARIA 2014-08-26 00:18:00 2014-08-26 03:18:00 2014-08-26 09:21:00 2014-08-26 12:21:00
Vessel Type: Yachts & andre  CHRISTINA 2014-08-25 13:30:00 2014-08-25 16:30:00 2014-08-26 08:36:00 2014-08-26 11:36:00
Vessel Type: Passasjer båt  ANNAEXPRESS 2014-08-25 12:43:00 2014-08-25 15:43:00 2014-08-25 12:58:00 2014-08-25 15:58:00
Vessel Type: Passasjer båt  NISOS KALYMNOS 2014-08-24 15:07:00 2014-08-24 18:07:00 2014-08-24 16:25:00 2014-08-24 19:25:00
Vessel Type: Tankskip  CHRISANTHI 2014-08-24 06:10:00 2014-08-24 09:10:00 2014-08-24 07:47:00 2014-08-24 10:47:00
Vessel Type: Slepebåt, losbåt  PLS 140 2014-08-24 01:17:00 2014-08-24 04:17:00 2014-08-24 06:03:00 2014-08-24 09:03:00

Forventet ankomst


Fartøyets navn
Scheduled Arrival (UTC)
Fastsatt ankomsttid (lokal)
Beregnet ankomst (UTC)
Beregnet ankomst lokal tid
Ingen registreringer funnet

Wind Forecast


    
Tid (UTC)
Fart
Direction
Temperature
2014-09-03 00:00:00 8 knots 156° 25°C
2014-09-03 03:00:00 10 knots 130° 24°C
2014-09-03 06:00:00 12 knots 128° 24°C
2014-09-03 09:00:00 14 knots 164° 24°C
2014-09-03 12:00:00 13 knots 178° 25°C
2014-09-03 15:00:00 10 knots 187° 25°C
2014-09-03 18:00:00 8 knots 179° 25°C
2014-09-03 21:00:00 8 knots 153° 25°C
2014-09-04 00:00:00 8 knots 141° 25°C
2014-09-04 03:00:00 8 knots 120° 25°C
2014-09-04 06:00:00 8 knots 112° 24°C
2014-09-04 09:00:00 5 knots 183° 24°C
2014-09-04 12:00:00 8 knots 245° 25°C
2014-09-04 15:00:00 8 knots 277° 24°C
2014-09-04 18:00:00 6 knots 301° 24°C
2014-09-04 21:00:00 7 knots 297° 24°C
2014-09-05 00:00:00 8 knots 303° 23°C

NO_PHOTO

No Photos for this port. Be the first to upload one!